Pagina principală
METAR-TAF:

METAR-TAF

Aeroporturi :

Saipan, Insulele Mariane, Statele Unite ale Americii

Latitudine: 15-07N, longitudine: 145-44E, elevație: 66 m

Observații meteo curente

Raportul a fost făcut în urmă cu 35 de minute, la 15:54 UTC
Vânt 14 kt de la Est/Sud-est
Temperatură 26°C
Umiditate 89%
Presiune 1013 hPa
Vizibilitate: 16.1 km
Nori împrăștiați la o înălțime de 1700 picior
Nori fragmentați la o înălțime de 2300 picior
Total acoperit la o înălțime de 4500 picior
ploaie

METAR: PGSN 081554Z 11014KT 10SM RA SCT017 BKN023 OVC045 26/24 A2992 RMK AO2 RAB50 SLP154 P0001 T02610239

Ora: 02:29 (16:29 UTC)

Prognoză

Raportul a fost făcut în urmă cu 5 ore și 9 de minute, la 11:20 UTC
Prognoză valabilă de la 08 ora 12 UTC la 09 ora 12 UTC
Vânt 14 kt de la Est
Vizibilitate: 10 km
Nori împrăștiați la o înălțime de 2200 picior
Nori fragmentați la o înălțime de 7000 picior
averse în apropiere

TAF: PGSN 081120Z 0812/0912 08014KT P6SM VCSH SCT022 BKN070

Observații și prognoze meteo pentru peste 4.000 de aeroporturi (rapoarte METAR și TAF).

Stațiile disponibile sunt reprezentate pe hartă prin puncte galbene și roșii.

Țineți indicatorul mouse-ului pe punctul dorit pentru a vedea denumirea stației.

Apoi, faceți clic pentru a vedea observațiile și prognozele meteorologice.

Pentru a schimba harta: Pentru mărire, faceți clic pe butoanele verzi cu cruce neagră; pentru micșorare, pe butonul verde cu o liniuță; pentru hărți învecinate, pe săgețile verzi.


METAR-TAF: